SKW7 EBAW-ELLX
Flight info
| Callsign | SKW7 |
|---|---|
| Flight time | 0h 51m |
| Altitude | 9000 |
| Route | REMBA |
| Aircraft | DA42/L-SDFGRY/C |
Departure
| Time | 2026-04-24 15:14 |
|---|---|
| Airport | Antwerp International Airport (Deurne) (EBAW) |
Arrival
| Time | 2026-04-24 16:06 |
|---|---|
| Airport | Luxembourg-Findel International Airport (ELLX) |
| Time | Latitude | Longitude | Altitude | Speed | Heading |
|---|---|---|---|---|---|
| 2026-04-24 15:02 | 51.18772 | 4.45381 | 34 ft | 0 kts | 326° |
| 2026-04-24 15:07 | 51.18794 | 4.45363 | 34 ft | 8 kts | 350° |
| 2026-04-24 15:08 | 51.18822 | 4.45448 | 34 ft | 10 kts | 90° |
| 2026-04-24 15:08 | 51.18756 | 4.45513 | 35 ft | 8 kts | 113° |
| 2026-04-24 15:08 | 51.18738 | 4.45630 | 35 ft | 14 kts | 104° |
| 2026-04-24 15:08 | 51.18709 | 4.45810 | 35 ft | 17 kts | 105° |
| 2026-04-24 15:09 | 51.18681 | 4.45991 | 35 ft | 16 kts | 105° |
| 2026-04-24 15:09 | 51.18653 | 4.46167 | 35 ft | 17 kts | 104° |
| 2026-04-24 15:09 | 51.18625 | 4.46349 | 35 ft | 17 kts | 104° |
| 2026-04-24 15:09 | 51.18595 | 4.46535 | 35 ft | 17 kts | 103° |
| 2026-04-24 15:10 | 51.18579 | 4.46659 | 35 ft | 18 kts | 92° |
| 2026-04-24 15:10 | 51.18601 | 4.46902 | 35 ft | 16 kts | 69° |
| 2026-04-24 15:10 | 51.18655 | 4.47040 | 35 ft | 13 kts | 51° |
| 2026-04-24 15:10 | 51.18697 | 4.47128 | 35 ft | 8 kts | 54° |
| 2026-04-24 15:11 | 51.18712 | 4.47159 | 35 ft | 0 kts | 20° |
| 2026-04-24 15:12 | 51.18725 | 4.47185 | 35 ft | 8 kts | 52° |
| 2026-04-24 15:13 | 51.18773 | 4.47249 | 33 ft | 9 kts | 355° |
| 2026-04-24 15:13 | 51.18794 | 4.47218 | 34 ft | 0 kts | 291° |
| 2026-04-24 15:13 | 51.18794 | 4.47214 | 34 ft | 0 kts | 292° |
| 2026-04-24 15:13 | 51.18866 | 4.46900 | 34 ft | 61 kts | 289° |
| 2026-04-24 15:14 | 51.19037 | 4.46119 | 127 ft | 82 kts | 289° |
| 2026-04-24 15:14 | 51.19196 | 4.45204 | 414 ft | 88 kts | 289° |
| 2026-04-24 15:14 | 51.19336 | 4.44237 | 682 ft | 91 kts | 287° |
| 2026-04-24 15:14 | 51.19420 | 4.43230 | 966 ft | 97 kts | 272° |
| 2026-04-24 15:15 | 51.19257 | 4.42138 | 1169 ft | 106 kts | 257° |
| 2026-04-24 15:15 | 51.18852 | 4.41146 | 1444 ft | 116 kts | 213° |
| 2026-04-24 15:15 | 51.18057 | 4.41093 | 1669 ft | 117 kts | 171° |
| 2026-04-24 15:15 | 51.17264 | 4.41280 | 1970 ft | 109 kts | 169° |
| 2026-04-24 15:16 | 51.16534 | 4.41498 | 2336 ft | 105 kts | 166° |
| 2026-04-24 15:16 | 51.15826 | 4.41742 | 2608 ft | 104 kts | 160° |
| 2026-04-24 15:16 | 51.15139 | 4.42094 | 2978 ft | 103 kts | 160° |
| 2026-04-24 15:16 | 51.14456 | 4.42453 | 3235 ft | 103 kts | 155° |
| 2026-04-24 15:17 | 51.13789 | 4.42894 | 3489 ft | 105 kts | 152° |
| 2026-04-24 15:17 | 51.13131 | 4.43376 | 3807 ft | 103 kts | 147° |
| 2026-04-24 15:17 | 51.12492 | 4.43962 | 3991 ft | 114 kts | 143° |
| 2026-04-24 15:17 | 51.11774 | 4.44705 | 3995 ft | 130 kts | 142° |
| 2026-04-24 15:18 | 51.11007 | 4.45555 | 3995 ft | 138 kts | 140° |
| 2026-04-24 15:18 | 51.10207 | 4.46492 | 3990 ft | 147 kts | 139° |
| 2026-04-24 15:18 | 51.09390 | 4.47498 | 3984 ft | 149 kts | 138° |
| 2026-04-24 15:18 | 51.08597 | 4.48526 | 3984 ft | 149 kts | 136° |
| 2026-04-24 15:19 | 51.07726 | 4.49451 | 3981 ft | 151 kts | 145° |
| 2026-04-24 15:19 | 51.06828 | 4.50317 | 3981 ft | 151 kts | 144° |
| 2026-04-24 15:19 | 51.05937 | 4.51207 | 3987 ft | 152 kts | 144° |
| 2026-04-24 15:19 | 51.05045 | 4.52111 | 3986 ft | 152 kts | 144° |
| 2026-04-24 15:20 | 51.04158 | 4.53023 | 3981 ft | 152 kts | 144° |
| 2026-04-24 15:20 | 51.03267 | 4.53937 | 3982 ft | 153 kts | 143° |
| 2026-04-24 15:20 | 51.02377 | 4.54844 | 3998 ft | 152 kts | 143° |
| 2026-04-24 15:20 | 51.01480 | 4.55757 | 3981 ft | 156 kts | 144° |
| 2026-04-24 15:21 | 51.00576 | 4.56669 | 3984 ft | 152 kts | 143° |
| 2026-04-24 15:21 | 50.99693 | 4.57578 | 3985 ft | 151 kts | 142° |
| 2026-04-24 15:21 | 50.98813 | 4.58478 | 3986 ft | 149 kts | 143° |
| 2026-04-24 15:21 | 50.97944 | 4.59358 | 3994 ft | 148 kts | 143° |
| 2026-04-24 15:22 | 50.97076 | 4.60243 | 3986 ft | 148 kts | 143° |
| 2026-04-24 15:22 | 50.96212 | 4.61126 | 3994 ft | 148 kts | 143° |
| 2026-04-24 15:22 | 50.95331 | 4.62021 | 3984 ft | 151 kts | 144° |
| 2026-04-24 15:23 | 50.93540 | 4.63836 | 3995 ft | 156 kts | 144° |
| 2026-04-24 15:23 | 50.91707 | 4.65688 | 3985 ft | 157 kts | 144° |
| 2026-04-24 15:23 | 50.90803 | 4.66610 | 3984 ft | 153 kts | 143° |
| 2026-04-24 15:24 | 50.88136 | 4.69324 | 3991 ft | 151 kts | 144° |
| 2026-04-24 15:25 | 50.86354 | 4.71132 | 3978 ft | 152 kts | 143° |
| 2026-04-24 15:25 | 50.84594 | 4.72919 | 3991 ft | 151 kts | 143° |
| 2026-04-24 15:26 | 50.81910 | 4.75617 | 3987 ft | 154 kts | 144° |
| 2026-04-24 15:27 | 50.79235 | 4.78322 | 3980 ft | 153 kts | 144° |
| 2026-04-24 15:27 | 50.76534 | 4.81059 | 3975 ft | 152 kts | 143° |
| 2026-04-24 15:28 | 50.72971 | 4.84627 | 3966 ft | 153 kts | 143° |
| 2026-04-24 15:29 | 50.71215 | 4.86395 | 3964 ft | 147 kts | 143° |
| 2026-04-24 15:30 | 50.68602 | 4.89017 | 3973 ft | 150 kts | 143° |
| 2026-04-24 15:31 | 50.65290 | 4.92845 | 3964 ft | 146 kts | 130° |
| 2026-04-24 15:32 | 50.62358 | 4.97395 | 3969 ft | 151 kts | 130° |
| 2026-04-24 15:33 | 50.59404 | 5.01984 | 3964 ft | 146 kts | 130° |
| 2026-04-24 15:33 | 50.57252 | 5.05319 | 3963 ft | 144 kts | 130° |
| 2026-04-24 15:34 | 50.55830 | 5.07516 | 3970 ft | 143 kts | 130° |
| 2026-04-24 15:35 | 50.53704 | 5.10793 | 3961 ft | 142 kts | 131° |
| 2026-04-24 15:35 | 50.52294 | 5.12981 | 3967 ft | 147 kts | 130° |
| 2026-04-24 15:35 | 50.51553 | 5.14125 | 3964 ft | 151 kts | 131° |
| 2026-04-24 15:36 | 50.50816 | 5.15257 | 3960 ft | 145 kts | 130° |
| 2026-04-24 15:36 | 50.49366 | 5.17492 | 3960 ft | 147 kts | 130° |
| 2026-04-24 15:36 | 50.48640 | 5.18608 | 3967 ft | 146 kts | 130° |
| 2026-04-24 15:37 | 50.47910 | 5.19735 | 3958 ft | 146 kts | 130° |
| 2026-04-24 15:37 | 50.47174 | 5.20851 | 3959 ft | 148 kts | 131° |
| 2026-04-24 15:37 | 50.46446 | 5.21970 | 3963 ft | 146 kts | 130° |
| 2026-04-24 15:37 | 50.45710 | 5.23109 | 3958 ft | 150 kts | 129° |
| 2026-04-24 15:38 | 50.44978 | 5.24254 | 3964 ft | 148 kts | 130° |
| 2026-04-24 15:38 | 50.44233 | 5.25387 | 3959 ft | 149 kts | 131° |
| 2026-04-24 15:38 | 50.43495 | 5.26505 | 3952 ft | 146 kts | 130° |
| 2026-04-24 15:38 | 50.42777 | 5.27607 | 3959 ft | 144 kts | 130° |
| 2026-04-24 15:39 | 50.42068 | 5.28696 | 3961 ft | 142 kts | 131° |
| 2026-04-24 15:39 | 50.41343 | 5.29807 | 3950 ft | 149 kts | 130° |
| 2026-04-24 15:39 | 50.40610 | 5.30929 | 3958 ft | 145 kts | 130° |
| 2026-04-24 15:39 | 50.39888 | 5.32039 | 3955 ft | 145 kts | 130° |
| 2026-04-24 15:40 | 50.39164 | 5.33151 | 3957 ft | 148 kts | 130° |
| 2026-04-24 15:40 | 50.38421 | 5.34285 | 3960 ft | 151 kts | 131° |
| 2026-04-24 15:40 | 50.37684 | 5.35403 | 3949 ft | 147 kts | 130° |
| 2026-04-24 15:40 | 50.36959 | 5.36511 | 3948 ft | 144 kts | 130° |
| 2026-04-24 15:41 | 50.36238 | 5.37614 | 3956 ft | 147 kts | 130° |
| 2026-04-24 15:41 | 50.35504 | 5.38742 | 3947 ft | 148 kts | 130° |
| 2026-04-24 15:41 | 50.34779 | 5.39844 | 3953 ft | 143 kts | 130° |
| 2026-04-24 15:41 | 50.34052 | 5.40949 | 3947 ft | 147 kts | 130° |
| 2026-04-24 15:42 | 50.33323 | 5.42064 | 3949 ft | 146 kts | 130° |
| 2026-04-24 15:42 | 50.32599 | 5.43170 | 3953 ft | 149 kts | 131° |
| 2026-04-24 15:42 | 50.31858 | 5.44292 | 3945 ft | 147 kts | 131° |
| 2026-04-24 15:42 | 50.31129 | 5.45400 | 3944 ft | 145 kts | 130° |
| 2026-04-24 15:43 | 50.30413 | 5.46493 | 3944 ft | 143 kts | 130° |
| 2026-04-24 15:43 | 50.29702 | 5.47576 | 3943 ft | 142 kts | 130° |
| 2026-04-24 15:43 | 50.28986 | 5.48664 | 3956 ft | 146 kts | 131° |
| 2026-04-24 15:43 | 50.28257 | 5.49775 | 3957 ft | 148 kts | 130° |
| 2026-04-24 15:44 | 50.27521 | 5.50890 | 3946 ft | 146 kts | 131° |
| 2026-04-24 15:44 | 50.26800 | 5.51984 | 3950 ft | 145 kts | 131° |
| 2026-04-24 15:44 | 50.26074 | 5.53079 | 3945 ft | 145 kts | 131° |
| 2026-04-24 15:44 | 50.25355 | 5.54173 | 3950 ft | 145 kts | 131° |
| 2026-04-24 15:45 | 50.24636 | 5.55264 | 3946 ft | 148 kts | 131° |
| 2026-04-24 15:45 | 50.23898 | 5.56386 | 3949 ft | 149 kts | 130° |
| 2026-04-24 15:45 | 50.23146 | 5.57522 | 3938 ft | 149 kts | 131° |
| 2026-04-24 15:45 | 50.22407 | 5.58635 | 3940 ft | 146 kts | 131° |
| 2026-04-24 15:46 | 50.21689 | 5.59737 | 3935 ft | 144 kts | 131° |
| 2026-04-24 15:46 | 50.20974 | 5.60823 | 3930 ft | 142 kts | 130° |
| 2026-04-24 15:46 | 50.20266 | 5.61892 | 3936 ft | 141 kts | 130° |
| 2026-04-24 15:46 | 50.19556 | 5.62955 | 3937 ft | 142 kts | 130° |
| 2026-04-24 15:47 | 50.18849 | 5.64030 | 3939 ft | 142 kts | 130° |
| 2026-04-24 15:47 | 50.18137 | 5.65105 | 3930 ft | 142 kts | 132° |
| 2026-04-24 15:47 | 50.17413 | 5.66195 | 3931 ft | 148 kts | 132° |
| 2026-04-24 15:47 | 50.16688 | 5.67288 | 4001 ft | 139 kts | 131° |
| 2026-04-24 15:48 | 50.15991 | 5.68340 | 4026 ft | 145 kts | 133° |
| 2026-04-24 15:48 | 50.15250 | 5.69452 | 4027 ft | 150 kts | 131° |
| 2026-04-24 15:48 | 50.14494 | 5.70594 | 4034 ft | 154 kts | 133° |
| 2026-04-24 15:48 | 50.13718 | 5.71751 | 4010 ft | 151 kts | 132° |
| 2026-04-24 15:49 | 50.12979 | 5.72873 | 4010 ft | 146 kts | 131° |
| 2026-04-24 15:49 | 50.12251 | 5.73979 | 4017 ft | 146 kts | 131° |
| 2026-04-24 15:49 | 50.11515 | 5.75086 | 4012 ft | 147 kts | 132° |
| 2026-04-24 15:49 | 50.10792 | 5.76172 | 4014 ft | 146 kts | 132° |
| 2026-04-24 15:50 | 50.10062 | 5.77267 | 4012 ft | 146 kts | 132° |
| 2026-04-24 15:50 | 50.09324 | 5.78369 | 4013 ft | 147 kts | 132° |
| 2026-04-24 15:50 | 50.08585 | 5.79474 | 4017 ft | 148 kts | 131° |
| 2026-04-24 15:50 | 50.07835 | 5.80593 | 4013 ft | 151 kts | 132° |
| 2026-04-24 15:51 | 50.07074 | 5.81742 | 4001 ft | 153 kts | 131° |
| 2026-04-24 15:51 | 50.06314 | 5.82887 | 4005 ft | 151 kts | 133° |
| 2026-04-24 15:51 | 50.05557 | 5.84017 | 3998 ft | 149 kts | 132° |
| 2026-04-24 15:51 | 50.04811 | 5.85151 | 4012 ft | 151 kts | 131° |
| 2026-04-24 15:52 | 50.04049 | 5.86290 | 4007 ft | 156 kts | 132° |
| 2026-04-24 15:52 | 50.03260 | 5.87453 | 4010 ft | 157 kts | 133° |
| 2026-04-24 15:52 | 50.02471 | 5.88638 | 4006 ft | 159 kts | 131° |
| 2026-04-24 15:52 | 50.01688 | 5.89830 | 4003 ft | 157 kts | 133° |
| 2026-04-24 15:53 | 50.00901 | 5.90996 | 3992 ft | 154 kts | 132° |
| 2026-04-24 15:53 | 50.00141 | 5.92129 | 3992 ft | 150 kts | 131° |
| 2026-04-24 15:53 | 49.99386 | 5.93260 | 3991 ft | 151 kts | 131° |
| 2026-04-24 15:53 | 49.98632 | 5.94396 | 3993 ft | 153 kts | 131° |
| 2026-04-24 15:54 | 49.97861 | 5.95543 | 4001 ft | 155 kts | 132° |
| 2026-04-24 15:54 | 49.97090 | 5.96685 | 3993 ft | 150 kts | 132° |
| 2026-04-24 15:54 | 49.96342 | 5.97794 | 4005 ft | 148 kts | 131° |
| 2026-04-24 15:54 | 49.95574 | 5.98942 | 3979 ft | 154 kts | 132° |
| 2026-04-24 15:55 | 49.94815 | 6.00072 | 3992 ft | 150 kts | 132° |
| 2026-04-24 15:55 | 49.94064 | 6.01197 | 3988 ft | 150 kts | 132° |
| 2026-04-24 15:55 | 49.93317 | 6.02307 | 3997 ft | 148 kts | 131° |
| 2026-04-24 15:55 | 49.92545 | 6.03455 | 3988 ft | 158 kts | 133° |
| 2026-04-24 15:56 | 49.91760 | 6.04612 | 3986 ft | 152 kts | 132° |
| 2026-04-24 15:56 | 49.91001 | 6.05752 | 4003 ft | 153 kts | 131° |
| 2026-04-24 15:56 | 49.90227 | 6.06901 | 3992 ft | 157 kts | 132° |
| 2026-04-24 15:56 | 49.89446 | 6.08054 | 3978 ft | 153 kts | 133° |
| 2026-04-24 15:57 | 49.88690 | 6.09175 | 3987 ft | 148 kts | 133° |
| 2026-04-24 15:57 | 49.87943 | 6.10301 | 3982 ft | 152 kts | 133° |
| 2026-04-24 15:57 | 49.87435 | 6.11046 | 3979 ft | 150 kts | 134° |
| 2026-04-24 15:57 | 49.86433 | 6.12501 | 3987 ft | 148 kts | 138° |
| 2026-04-24 15:58 | 49.85458 | 6.13053 | 3870 ft | 157 kts | 177° |
| 2026-04-24 15:58 | 49.84380 | 6.12926 | 3623 ft | 154 kts | 185° |
| 2026-04-24 15:58 | 49.83317 | 6.12729 | 3373 ft | 152 kts | 186° |
| 2026-04-24 15:58 | 49.82276 | 6.12538 | 3118 ft | 150 kts | 186° |
| 2026-04-24 15:59 | 49.81236 | 6.12347 | 2877 ft | 152 kts | 186° |
| 2026-04-24 15:59 | 49.80199 | 6.12157 | 2710 ft | 149 kts | 186° |
| 2026-04-24 15:59 | 49.79180 | 6.11974 | 2533 ft | 149 kts | 186° |
| 2026-04-24 15:59 | 49.78165 | 6.11787 | 2353 ft | 145 kts | 186° |
| 2026-04-24 16:00 | 49.77162 | 6.11613 | 2172 ft | 145 kts | 184° |
| 2026-04-24 16:00 | 49.76172 | 6.11421 | 2003 ft | 142 kts | 186° |
| 2026-04-24 16:00 | 49.75208 | 6.11229 | 1994 ft | 138 kts | 178° |
| 2026-04-24 16:00 | 49.74328 | 6.11631 | 2034 ft | 125 kts | 148° |
| 2026-04-24 16:01 | 49.73606 | 6.12203 | 2071 ft | 113 kts | 149° |
| 2026-04-24 16:01 | 49.72914 | 6.12762 | 2004 ft | 110 kts | 148° |
| 2026-04-24 16:01 | 49.72232 | 6.13286 | 2006 ft | 111 kts | 148° |
| 2026-04-24 16:01 | 49.71527 | 6.13810 | 1997 ft | 113 kts | 148° |
| 2026-04-24 16:02 | 49.70822 | 6.14325 | 1981 ft | 110 kts | 149° |
| 2026-04-24 16:02 | 49.70167 | 6.14793 | 1994 ft | 101 kts | 148° |
| 2026-04-24 16:02 | 49.69500 | 6.15292 | 1990 ft | 112 kts | 148° |
| 2026-04-24 16:02 | 49.68782 | 6.15812 | 2002 ft | 116 kts | 149° |
| 2026-04-24 16:03 | 49.68038 | 6.16371 | 2006 ft | 120 kts | 143° |
| 2026-04-24 16:03 | 49.67326 | 6.17067 | 2005 ft | 122 kts | 142° |
| 2026-04-24 16:03 | 49.66603 | 6.17767 | 2004 ft | 124 kts | 142° |
| 2026-04-24 16:03 | 49.65875 | 6.18469 | 1955 ft | 122 kts | 144° |
| 2026-04-24 16:04 | 49.65162 | 6.19112 | 1838 ft | 116 kts | 150° |
| 2026-04-24 16:04 | 49.64390 | 6.19178 | 1756 ft | 115 kts | 200° |
| 2026-04-24 16:04 | 49.63738 | 6.18428 | 1650 ft | 116 kts | 212° |
| 2026-04-24 16:04 | 49.63051 | 6.17935 | 1618 ft | 101 kts | 198° |
| 2026-04-24 16:05 | 49.61982 | 6.17650 | 1430 ft | 90 kts | 148° |
| 2026-04-24 16:05 | 49.61737 | 6.18416 | 1289 ft | 78 kts | 87° |
| 2026-04-24 16:06 | 49.62078 | 6.19629 | 1219 ft | 36 kts | 60° |
| 2026-04-24 16:06 | 49.62207 | 6.19982 | 1220 ft | 41 kts | 60° |
| 2026-04-24 16:06 | 49.62425 | 6.20545 | 1213 ft | 12 kts | 43° |
| 2026-04-24 16:07 | 49.62503 | 6.20600 | 1213 ft | 13 kts | 20° |
| 2026-04-24 16:07 | 49.62589 | 6.20649 | 1213 ft | 13 kts | 21° |
| 2026-04-24 16:07 | 49.62758 | 6.20749 | 1212 ft | 13 kts | 21° |
| 2026-04-24 16:08 | 49.62816 | 6.20806 | 1212 ft | 9 kts | 62° |
| 2026-04-24 16:08 | 49.62892 | 6.20855 | 1213 ft | 5 kts | 340° |
| 2026-04-24 16:09 | 49.62905 | 6.20876 | 1213 ft | 0 kts | 65° |
| 2026-04-24 16:10 | 49.62905 | 6.20875 | 1213 ft | 0 kts | 65° |